Time;durP1;ratioP1;P1;durP2;ratioP2;P2;SDS_P1;SDS_P2;PMS_P1;PMS_P2;Temp;Humidity;BMP_temperature;BMP_pressure;BME280_temperature;BME280_humidity;BME280_pressure;Samples;Min_cycle;Max_cycle;Signal;HPM_P1;HPM_P2
2022/09/18 00:01:41;;;;;;;;;8.60;7.20;;;;;13.96;76.71;98678.94;5099028;28;8845;-78
2022/09/18 00:04:13;;;;;;;;;6.60;5.80;;;;;13.79;76.31;98682.03;5071643;28;8899;-81
2022/09/18 00:06:44;;;;;;;;;8.00;7.00;;;;;13.54;76.96;98674.81;5047517;28;8818;-78
2022/09/18 00:09:14;;;;;;;;;5.80;5.80;;;;;13.59;77.12;98683.44;5045176;28;8860;-79
2022/09/18 00:11:46;;;;;;;;;6.40;5.40;;;;;13.49;76.18;98679.31;5028438;28;8848;-78
2022/09/18 00:14:17;;;;;;;;;8.20;8.20;;;;;13.44;78.16;98691.69;5045112;28;8894;-79
2022/09/18 00:16:46;;;;;;;;;5.20;5.20;;;;;13.61;77.38;98691.22;5044239;28;8882;-79
2022/09/18 00:19:16;;;;;;;;;6.20;6.20;;;;;13.58;76.65;98686.94;5028459;28;8882;-80
2022/09/18 00:21:47;;;;;;;;;5.80;4.40;;;;;13.20;77.97;98686.13;5028118;28;8860;-79
2022/09/18 00:24:17;;;;;;;;;5.60;4.40;;;;;13.26;78.50;98693.84;5044646;28;8889;-78
2022/09/18 00:26:46;;;;;;;;;3.60;3.60;;;;;12.94;79.79;98692.00;5027966;28;8902;-79
2022/09/18 00:29:16;;;;;;;;;5.80;5.80;;;;;12.96;79.47;98705.06;5045379;28;8879;-79
2022/09/18 00:31:45;;;;;;;;;5.80;5.80;;;;;12.50;81.08;98701.75;5047464;28;8934;-78
2022/09/18 00:34:16;;;;;;;;;6.40;6.40;;;;;12.81;80.45;98709.75;5045839;28;8874;-79
2022/09/18 00:36:45;;;;;;;;;4.80;4.80;;;;;12.54;80.95;98716.47;5048768;28;8842;-77
2022/09/18 00:39:14;;;;;;;;;6.40;6.40;;;;;12.42;81.92;98722.84;5085880;28;8874;-78
2022/09/18 00:41:43;;;;;;;;;3.80;3.40;;;;;12.71;81.58;98716.09;5085216;28;8865;-79
2022/09/18 00:44:34;;;;;;;;;4.80;4.80;;;;;12.61;80.71;98711.97;5102382;27;8850;-79
2022/09/18 00:47:26;;;;;;;;;5.60;5.60;;;;;12.53;81.00;98725.19;5086275;28;8834;-77
2022/09/18 00:50:03;;;;;;;;;5.60;4.40;;;;;12.56;81.48;98716.44;5066275;28;8854;-78
2022/09/18 00:52:43;;;;;;;;;4.20;4.20;;;;;12.28;81.67;98727.47;5102358;28;8830;-77
2022/09/18 00:55:13;;;;;;;;;4.80;4.80;;;;;12.43;81.59;98723.69;5068229;28;8868;-79
2022/09/18 00:57:46;;;;;;;;;3.60;3.60;;;;;12.31;81.98;98714.34;5085504;28;8838;-78
2022/09/18 01:00:15;;;;;;;;;2.40;2.40;;;;;12.51;81.31;98728.75;5102045;28;9047;-78
2022/09/18 01:02:47;;;;;;;;;3.20;3.20;;;;;12.25;81.92;98725.81;5057655;28;8940;-78
2022/09/18 01:05:23;;;;;;;;;2.00;2.00;;;;;12.61;80.29;98728.53;5081455;28;8888;-78
2022/09/18 01:08:07;;;;;;;;;4.40;3.00;;;;;12.03;82.08;98740.19;5051582;28;8908;-77
2022/09/18 01:10:55;;;;;;;;;4.00;4.00;;;;;12.31;81.65;98742.25;5069025;28;8866;-77
2022/09/18 01:13:35;;;;;;;;;3.80;3.80;;;;;12.59;80.97;98740.78;5068357;28;8968;-76
2022/09/18 01:16:12;;;;;;;;;3.80;3.80;;;;;12.33;82.17;98741.31;5068255;28;8854;-78
2022/09/18 01:18:49;;;;;;;;;3.00;3.00;;;;;12.27;82.78;98734.47;5085445;28;8982;-79
2022/09/18 01:21:27;;;;;;;;;4.60;2.80;;;;;12.38;81.26;98747.34;5102506;28;8880;-79
2022/09/18 01:24:21;;;;;;;;;6.00;4.00;;;;;12.74;81.38;98747.44;5105334;28;8962;-77
2022/09/18 01:27:00;;;;;;;;;4.80;3.40;;;;;12.57;81.73;98750.41;5088526;28;8848;-76
2022/09/18 01:29:40;;;;;;;;;4.00;4.00;;;;;12.32;80.62;98752.66;5089973;28;8887;-78
2022/09/18 01:32:18;;;;;;;;;6.00;4.40;;;;;12.91;79.43;98749.66;5071441;28;8970;-79
2022/09/18 01:34:55;;;;;;;;;4.00;4.00;;;;;12.69;79.70;98751.91;5071120;28;8940;-80
2022/09/18 01:37:32;;;;;;;;;6.00;6.00;;;;;12.83;79.59;98749.81;5087783;28;8859;-79
2022/09/18 01:40:11;;;;;;;;;4.00;4.00;;;;;12.62;79.24;98753.78;5086596;28;8850;-78
2022/09/18 01:42:42;;;;;;;;;4.00;4.00;;;;;12.72;79.73;98774.50;5051163;28;8870;-77
2022/09/18 01:45:18;;;;;;;;;3.40;3.00;;;;;12.80;80.46;98767.38;5051344;28;8858;-79
2022/09/18 01:47:51;;;;;;;;;6.00;4.00;;;;;12.71;80.90;98772.78;5069224;28;8861;-79
2022/09/18 01:50:22;;;;;;;;;3.60;3.60;;;;;12.76;79.88;98779.66;5067478;28;8870;-78
2022/09/18 01:52:59;;;;;;;;;6.60;6.00;;;;;12.67;80.67;98780.69;5033910;28;8889;-77
2022/09/18 01:55:32;;;;;;;;;3.40;3.20;;;;;12.72;80.22;98778.00;5079208;28;8878;-79
2022/09/18 01:58:06;;;;;;;;;5.60;4.00;;;;;12.67;79.26;98787.69;5081565;28;8962;-79
2022/09/18 02:00:39;;;;;;;;;7.20;4.00;;;;;13.29;78.31;98788.91;5049300;28;8939;-78
2022/09/18 02:03:13;;;;;;;;;3.00;3.00;;;;;13.61;77.02;98777.69;5068588;28;8850;-78
2022/09/18 02:05:48;;;;;;;;;2.00;2.00;;;;;13.16;78.30;98796.22;5089534;28;8900;-78
2022/09/18 02:08:22;;;;;;;;;4.40;4.40;;;;;13.03;78.52;98801.72;5116869;28;8846;-79
2022/09/18 02:11:00;;;;;;;;;3.60;2.60;;;;;13.12;79.27;98798.03;5053883;28;8864;-79
2022/09/18 02:13:34;;;;;;;;;3.20;3.20;;;;;13.16;77.76;98796.22;5050719;28;8956;-79
2022/09/18 02:16:10;;;;;;;;;2.20;2.20;;;;;13.14;78.95;98808.47;5012227;28;8942;-78
2022/09/18 02:18:44;;;;;;;;;2.60;2.60;;;;;13.10;78.64;98812.94;5012368;28;8883;-77
2022/09/18 02:21:17;;;;;;;;;2.20;2.20;;;;;13.02;78.88;98807.88;5028593;28;8872;-78
2022/09/18 02:23:46;;;;;;;;;4.00;4.00;;;;;13.32;77.38;98808.06;5045135;28;8841;-78
2022/09/18 02:26:19;;;;;;;;;3.60;3.60;;;;;13.33;76.81;98801.09;4996627;28;8918;-79
2022/09/18 02:28:50;;;;;;;;;4.00;3.00;;;;;13.27;76.55;98802.91;5028809;28;8876;-78
2022/09/18 02:31:21;;;;;;;;;2.60;2.60;;;;;13.49;75.88;98814.66;5046149;28;8990;-77
2022/09/18 02:33:52;;;;;;;;;3.00;3.00;;;;;13.47;75.84;98821.69;5040307;28;8954;-78
2022/09/18 02:36:50;;;;;;;;;3.00;3.00;;;;;13.55;76.12;98822.38;5067565;28;8938;-79
2022/09/18 02:39:32;;;;;;;;;3.00;3.00;;;;;13.92;75.87;98829.31;5084244;28;8885;-78
2022/09/18 02:42:12;;;;;;;;;4.00;2.00;;;;;13.44;75.46;98844.44;5084023;28;8888;-80
2022/09/18 02:44:49;;;;;;;;;3.00;3.00;;;;;13.44;76.18;98838.38;5084045;28;8838;-79
2022/09/18 02:47:31;;;;;;;;;4.00;3.20;;;;;13.25;77.39;98843.09;5083640;28;8878;-78
2022/09/18 02:50:14;;;;;;;;;1.20;1.20;;;;;13.14;77.43;98846.00;5067028;28;8858;-80
2022/09/18 02:52:48;;;;;;;;;2.00;2.00;;;;;13.37;76.64;98839.41;5066578;28;8854;-79
2022/09/18 02:55:24;;;;;;;;;2.20;2.20;;;;;13.19;76.10;98841.50;5083513;28;8846;-79
2022/09/18 02:57:59;;;;;;;;;3.60;3.60;;;;;12.93;78.07;98841.19;5083139;28;8854;-79
2022/09/18 03:00:30;;;;;;;;;4.80;4.00;;;;;13.20;77.18;98843.22;5083214;28;8951;-77
2022/09/18 03:03:03;;;;;;;;;3.80;3.80;;;;;13.06;77.49;98840.03;5089273;28;8866;-79
2022/09/18 03:05:42;;;;;;;;;5.20;3.40;;;;;13.32;77.24;98829.00;5066667;28;8924;-78
2022/09/18 03:08:10;;;;;;;;;2.80;2.80;;;;;13.78;75.47;98837.50;5083312;28;8874;-78
2022/09/18 03:10:39;;;;;;;;;3.00;2.00;;;;;13.95;74.85;98832.72;5066351;28;8893;-78
2022/09/18 03:13:08;;;;;;;;;1.80;1.80;;;;;14.09;74.32;98839.38;5051136;28;9648;-79
2022/09/18 03:15:36;;;;;;;;;2.60;2.60;;;;;14.29;72.85;98836.19;5071071;28;8885;-78
2022/09/18 03:18:06;;;;;;;;;3.60;2.60;;;;;14.57;72.31;98852.06;5071817;28;8892;-76
2022/09/18 03:20:34;;;;;;;;;3.20;3.20;;;;;14.73;71.04;98850.75;5086700;28;8857;-77
2022/09/18 03:23:06;;;;;;;;;3.20;3.20;;;;;14.84;70.41;98849.56;5070279;28;9591;-77
2022/09/18 03:25:34;;;;;;;;;4.00;3.00;;;;;14.63;71.17;98851.94;5109492;28;8855;-78
2022/09/18 03:28:04;;;;;;;;;5.80;3.00;;;;;14.24;71.85;98866.03;5092315;28;8863;-76
2022/09/18 03:30:38;;;;;;;;;2.80;1.20;;;;;14.25;72.28;98861.66;5075652;28;8909;-76
2022/09/18 03:33:09;;;;;;;;;2.20;2.20;;;;;14.00;73.37;98875.41;5092789;28;8959;-76
2022/09/18 03:35:38;;;;;;;;;4.00;3.00;;;;;13.99;72.60;98871.06;5076026;28;8944;-77
2022/09/18 03:38:06;;;;;;;;;4.60;3.00;;;;;14.06;73.28;98871.75;5107843;27;8924;-76
2022/09/18 03:40:35;;;;;;;;;3.20;3.00;;;;;14.16;72.31;98880.28;5114487;27;9651;-78
2022/09/18 03:43:06;;;;;;;;;4.00;4.00;;;;;14.33;72.23;98882.41;5116983;27;8867;-76
2022/09/18 03:45:34;;;;;;;;;2.60;2.60;;;;;13.75;73.96;98887.41;5092947;28;8920;-77
2022/09/18 03:48:05;;;;;;;;;2.00;2.00;;;;;13.69;73.17;98892.78;5092734;28;8847;-78
2022/09/18 03:50:36;;;;;;;;;2.80;2.80;;;;;13.62;72.92;98898.16;5092505;28;8859;-78
2022/09/18 03:53:08;;;;;;;;;2.20;2.20;;;;;13.61;74.35;98909.56;5092421;28;8847;-78
2022/09/18 03:55:49;;;;;;;;;2.00;2.00;;;;;13.31;74.79;98913.72;5100536;28;8838;-80
2022/09/18 03:58:37;;;;;;;;;2.80;2.20;;;;;13.72;72.81;98909.28;5092035;28;8972;-78
2022/09/18 04:01:31;;;;;;;;;1.80;1.80;;;;;13.35;74.07;98909.28;5042074;28;8926;-80
2022/09/18 04:04:19;;;;;;;;;3.80;3.80;;;;;13.43;74.25;98915.19;5029986;28;8965;-77
2022/09/18 04:07:12;;;;;;;;;1.00;1.00;;;;;13.13;74.55;98917.53;5031686;28;8854;-78
2022/09/18 04:09:46;;;;;;;;;1.60;1.60;;;;;13.30;74.36;98918.94;5027643;28;8994;-77
2022/09/18 04:12:15;;;;;;;;;3.00;3.00;;;;;13.13;74.50;98919.31;5012003;28;9003;-79
2022/09/18 04:14:47;;;;;;;;;2.00;2.00;;;;;13.24;73.73;98920.81;5044079;28;8838;-79
2022/09/18 04:17:16;;;;;;;;;2.00;2.00;;;;;13.48;74.09;98912.47;5031447;28;8952;-78
2022/09/18 04:19:44;;;;;;;;;3.00;2.20;;;;;13.39;73.18;98914.41;5008411;28;9031;-77
2022/09/18 04:22:18;;;;;;;;;2.00;2.00;;;;;13.38;73.20;98919.66;5008204;28;8905;-77
2022/09/18 04:24:49;;;;;;;;;2.00;2.00;;;;;13.17;73.32;98920.97;5006949;28;8909;-77
2022/09/18 04:27:18;;;;;;;;;2.60;2.60;;;;;12.90;74.61;98925.88;4974880;28;8907;-79
2022/09/18 04:29:50;;;;;;;;;6.20;2.40;;;;;13.34;73.76;98926.72;4992373;28;10110;-79
2022/09/18 04:32:19;;;;;;;;;2.20;2.20;;;;;13.08;72.99;98935.13;4991668;28;8879;-81
2022/09/18 04:34:48;;;;;;;;;3.20;3.20;;;;;12.84;73.69;98939.94;4991413;28;8859;-80
2022/09/18 04:37:16;;;;;;;;;2.40;2.40;;;;;13.00;73.84;98945.72;4943235;28;8855;-79
2022/09/18 04:39:48;;;;;;;;;15.20;10.60;;;;;12.93;73.68;98948.50;4991390;28;8865;-78
2022/09/18 04:42:16;;;;;;;;;3.40;3.00;;;;;13.13;73.07;98954.19;5007654;28;9023;-79
2022/09/18 04:44:46;;;;;;;;;2.00;2.00;;;;;13.01;73.17;98962.31;5030958;28;8958;-78
2022/09/18 04:47:15;;;;;;;;;3.00;3.00;;;;;12.98;72.96;98963.22;5046970;28;8846;-78
2022/09/18 04:49:44;;;;;;;;;2.40;0.80;;;;;12.79;73.21;98961.84;5047195;28;8965;-79
2022/09/18 04:52:13;;;;;;;;;3.40;1.80;;;;;13.01;73.47;98967.53;5071951;28;8887;-78
2022/09/18 04:54:42;;;;;;;;;3.00;2.00;;;;;12.96;72.52;98972.00;5089014;28;8856;-78
2022/09/18 04:57:12;;;;;;;;;2.00;2.00;;;;;12.77;73.17;98980.19;5054056;28;9605;-77
2022/09/18 04:59:43;;;;;;;;;3.00;3.00;;;;;13.08;72.93;98982.25;5084219;28;8941;-77
2022/09/18 05:02:12;;;;;;;;;3.40;2.20;;;;;12.76;73.50;98988.94;5102431;28;8858;-78
2022/09/18 05:04:40;;;;;;;;;1.20;1.20;;;;;12.72;73.64;98994.25;5068529;28;8858;-81
2022/09/18 05:07:19;;;;;;;;;2.00;2.00;;;;;12.52;74.07;98992.84;5085480;28;8858;-80
2022/09/18 05:09:49;;;;;;;;;2.40;2.40;;;;;12.45;73.59;98993.84;5086165;28;8861;-78
2022/09/18 05:12:19;;;;;;;;;2.40;2.40;;;;;12.68;73.66;99007.41;5068998;28;8850;-79
2022/09/18 05:14:48;;;;;;;;;2.00;2.00;;;;;12.76;74.11;98998.53;5086070;28;8838;-80
2022/09/18 05:17:19;;;;;;;;;2.00;2.00;;;;;12.76;73.88;98995.91;5035733;28;8968;-79
2022/09/18 05:20:00;;;;;;;;;1.60;1.60;;;;;12.99;71.76;99003.34;5102847;28;8878;-78
2022/09/18 05:22:35;;;;;;;;;3.00;2.00;;;;;12.92;72.98;99002.59;5068498;28;8878;-83
2022/09/18 05:25:09;;;;;;;;;1.00;1.00;;;;;12.94;71.34;99007.81;5051815;28;8846;-78
2022/09/18 05:27:39;;;;;;;;;2.80;2.80;;;;;13.14;70.75;99015.28;5102331;27;9600;-78
2022/09/18 05:30:10;;;;;;;;;2.00;2.00;;;;;13.19;70.19;99014.28;5068671;28;8854;-78
2022/09/18 05:32:59;;;;;;;;;2.80;1.40;;;;;13.54;69.86;99014.50;5101718;28;8846;-79
2022/09/18 05:35:31;;;;;;;;;2.20;1.60;;;;;13.44;69.23;99014.69;5084974;28;8842;-78
2022/09/18 05:38:01;;;;;;;;;27.00;24.60;;;;;13.63;68.53;99017.78;5051044;28;9005;-77
2022/09/18 05:40:34;;;;;;;;;3.60;1.40;;;;;13.75;67.89;99021.91;5102097;27;8865;-77
2022/09/18 05:43:06;;;;;;;;;7.80;7.00;;;;;13.85;66.81;99025.16;5051709;28;8854;-78
2022/09/18 05:45:36;;;;;;;;;2.00;2.00;;;;;13.40;68.50;99030.50;5084771;28;8850;-80
2022/09/18 05:48:16;;;;;;;;;1.80;1.80;;;;;13.61;67.90;99024.81;5070896;28;8865;-78
2022/09/18 05:50:47;;;;;;;;;1.80;1.80;;;;;13.45;68.37;99039.13;5035002;28;8854;-78
2022/09/18 05:53:18;;;;;;;;;2.60;1.00;;;;;13.79;66.64;99041.91;5069147;28;8878;-76
2022/09/18 05:56:00;;;;;;;;;2.00;2.00;;;;;13.71;67.25;99038.59;5069102;28;8866;-79
2022/09/18 05:58:32;;;;;;;;;1.00;1.00;;;;;13.79;66.96;99041.03;5088327;28;8888;-79
2022/09/18 06:01:03;;;;;;;;;2.00;2.00;;;;;14.17;67.63;99039.31;5088847;28;8850;-77
2022/09/18 06:03:52;;;;;;;;;2.00;1.20;;;;;14.09;66.73;99028.16;5075393;28;8904;-78
2022/09/18 06:06:22;;;;;;;;;7.80;6.60;;;;;14.06;65.82;99042.16;5112752;28;8836;-78
2022/09/18 06:08:51;;;;;;;;;3.80;3.40;;;;;14.06;66.23;99033.44;5094272;28;8863;-78
2022/09/18 06:11:21;;;;;;;;;2.00;2.00;;;;;13.81;65.66;99040.09;5082206;28;8976;-79
2022/09/18 06:13:51;;;;;;;;;1.40;1.40;;;;;14.32;64.90;99033.69;5084285;28;9709;-77
2022/09/18 06:16:20;;;;;;;;;3.00;2.60;;;;;14.13;64.22;99040.28;5027502;28;8869;-78
2022/09/18 06:18:57;;;;;;;;;3.00;3.00;;;;;13.40;66.97;99054.06;5087345;28;8855;-72
2022/09/18 06:21:26;;;;;;;;;1.00;1.00;;;;;13.85;67.42;99054.00;5086471;28;8851;-74
2022/09/18 06:23:55;;;;;;;;;2.00;2.00;;;;;13.96;66.34;99044.16;5088210;28;8973;-75
2022/09/18 06:26:53;;;;;;;;;4.00;4.00;;;;;14.16;64.90;99058.56;5025160;28;8962;-72
2022/09/18 06:29:24;;;;;;;;;2.00;2.00;;;;;13.76;66.79;99062.06;4991998;28;8879;-74
2022/09/18 06:32:13;;;;;;;;;3.60;3.60;;;;;14.43;65.39;99050.03;5012696;28;8872;-73
2022/09/18 06:34:42;;;;;;;;;4.20;2.00;;;;;14.24;63.97;99056.63;5023471;28;8878;-79
2022/09/18 06:37:15;;;;;;;;;2.40;1.80;;;;;14.15;64.29;99052.44;5025055;28;8898;-78
2022/09/18 06:39:45;;;;;;;;;2.00;1.20;;;;;14.10;64.15;99066.56;5005906;28;8868;-78
2022/09/18 06:42:29;;;;;;;;;2.00;2.00;;;;;14.47;63.52;99055.22;5001861;28;8876;-78
2022/09/18 06:45:15;;;;;;;;;2.00;2.00;;;;;14.65;62.19;99059.16;5025031;28;8856;-80
2022/09/18 06:47:45;;;;;;;;;3.20;2.00;;;;;14.36;63.17;99079.06;5008307;28;8992;-80
2022/09/18 06:50:14;;;;;;;;;1.00;1.00;;;;;14.81;62.92;99061.38;5008595;28;8861;-80
2022/09/18 06:52:45;;;;;;;;;11.80;11.00;;;;;15.13;60.63;99071.94;5009012;28;8864;-80
2022/09/18 06:55:14;;;;;;;;;3.00;3.00;;;;;15.40;60.65;99072.94;5009550;28;8973;-79
2022/09/18 06:57:52;;;;;;;;;2.00;2.00;;;;;15.57;60.06;99075.09;5008132;28;8910;-79
2022/09/18 07:00:23;;;;;;;;;18.60;17.20;;;;;15.38;60.15;99074.75;4971163;28;8904;-80
2022/09/18 07:02:57;;;;;;;;;4.20;4.20;;;;;15.53;58.85;99086.63;4999707;28;8880;-77
2022/09/18 07:05:55;;;;;;;;;1.00;1.00;;;;;15.87;59.49;99093.56;5029676;28;8966;-79
2022/09/18 07:08:36;;;;;;;;;1.00;1.00;;;;;15.98;57.55;99094.97;5063624;28;8994;-80
2022/09/18 07:11:14;;;;;;;;;3.00;2.00;;;;;15.49;58.99;99106.00;5104009;28;8859;-79
2022/09/18 07:13:44;;;;;;;;;2.00;2.00;;;;;15.92;59.51;99089.03;5086233;28;8832;-79
2022/09/18 07:16:14;;;;;;;;;1.80;1.80;;;;;15.89;59.82;99094.38;5087528;28;8866;-79
2022/09/18 07:18:45;;;;;;;;;5.20;5.20;;;;;15.95;57.86;99102.97;5086885;28;8874;-80
2022/09/18 07:21:14;;;;;;;;;3.00;3.00;;;;;16.26;59.02;99103.81;5088194;28;8872;-79
2022/09/18 07:23:44;;;;;;;;;3.00;2.60;;;;;15.39;60.32;99113.28;5088371;28;8846;-79
2022/09/18 07:26:13;;;;;;;;;2.40;2.40;;;;;15.31;60.28;99112.59;5069369;28;8873;-79
2022/09/18 07:28:41;;;;;;;;;3.20;3.00;;;;;15.33;60.30;99122.19;5066468;28;8861;-81
2022/09/18 07:31:19;;;;;;;;;1.40;1.40;;;;;15.33;57.90;99116.94;5085798;28;8835;-79
2022/09/18 07:33:51;;;;;;;;;2.20;2.00;;;;;15.38;58.63;99119.44;5102891;28;8867;-78
2022/09/18 07:36:21;;;;;;;;;2.80;2.80;;;;;15.18;57.00;99133.97;5071112;28;9567;-82
2022/09/18 07:38:51;;;;;;;;;3.20;2.00;;;;;15.43;57.07;99121.94;5068080;28;8867;-78
2022/09/18 07:41:21;;;;;;;;;2.60;2.60;;;;;15.23;56.52;99127.72;5019781;28;8843;-81
2022/09/18 07:43:50;;;;;;;;;2.00;2.00;;;;;15.48;55.95;99135.78;5070673;28;8855;-79
2022/09/18 07:46:20;;;;;;;;;1.00;1.00;;;;;15.43;53.62;99130.69;5087962;28;8904;-81
2022/09/18 07:48:52;;;;;;;;;2.60;2.00;;;;;15.43;55.35;99135.09;5067341;28;8842;-80
2022/09/18 07:51:26;;;;;;;;;1.80;1.80;;;;;15.40;55.42;99131.59;5069435;28;8881;-81
2022/09/18 07:53:57;;;;;;;;;2.80;2.60;;;;;15.61;54.45;99147.69;5068502;28;9565;-80
2022/09/18 07:56:43;;;;;;;;;1.00;1.00;;;;;15.79;54.22;99138.47;5095537;28;8842;-79
2022/09/18 07:59:20;;;;;;;;;1.00;1.00;;;;;15.73;53.22;99144.78;5073006;28;8897;-82
2022/09/18 08:01:57;;;;;;;;;1.00;1.00;;;;;15.25;52.98;99155.66;5054501;28;8857;-80
2022/09/18 08:04:28;;;;;;;;;1.00;1.00;;;;;15.43;53.54;99158.72;5057157;28;8830;-79
2022/09/18 08:07:17;;;;;;;;;1.80;1.60;;;;;15.79;52.92;99144.59;5078623;28;8897;-79
2022/09/18 08:10:01;;;;;;;;;1.40;1.40;;;;;15.50;54.32;99155.91;5071799;28;9916;-83
2022/09/18 08:12:39;;;;;;;;;1.60;1.40;;;;;16.10;52.32;99148.09;5052327;28;8860;-81
2022/09/18 08:15:28;;;;;;;;;1.00;1.00;;;;;15.59;52.53;99153.03;5068857;28;9577;-80
2022/09/18 08:18:15;;;;;;;;;1.00;1.00;;;;;15.86;53.40;99144.41;5017110;28;9608;-83
2022/09/18 08:20:58;;;;;;;;;3.00;2.00;;;;;15.91;51.92;99153.03;5016962;28;8888;-79
2022/09/18 08:23:41;;;;;;;;;1.00;1.00;;;;;15.71;50.97;99159.69;5037323;28;8857;-78
2022/09/18 08:26:10;;;;;;;;;9.60;8.60;;;;;16.25;53.20;99152.91;5041977;28;9034;-79
2022/09/18 08:28:38;;;;;;;;;2.40;1.40;;;;;15.82;52.31;99158.56;5054827;28;8889;-80
2022/09/18 08:31:08;;;;;;;;;14.40;13.40;;;;;15.86;50.98;99163.69;5012730;28;8841;-82
2022/09/18 08:33:40;;;;;;;;;2.00;2.00;;;;;15.97;51.10;99166.88;4997153;28;8872;-82
2022/09/18 08:36:23;;;;;;;;;2.00;2.00;;;;;16.08;49.96;99163.06;5009900;28;8983;-83
2022/09/18 08:39:00;;;;;;;;;2.00;2.00;;;;;16.20;50.41;99169.72;4994272;28;8864;-79
2022/09/18 08:42:16;;;;;;;;;2.80;0.60;;;;;15.68;51.47;99166.81;5011418;28;8867;-82
2022/09/18 08:44:51;;;;;;;;;1.60;1.00;;;;;16.11;51.26;99158.59;5050485;28;8950;-81
2022/09/18 08:47:25;;;;;;;;;0.80;0.80;;;;;16.07;51.93;99162.22;5055660;28;8842;-79
2022/09/18 08:50:03;;;;;;;;;0.80;0.80;;;;;16.04;50.37;99166.69;5057497;28;8854;-79
2022/09/18 08:52:34;;;;;;;;;1.60;1.60;;;;;16.22;50.85;99154.75;5065296;28;9717;-79
2022/09/18 08:55:26;;;;;;;;;2.00;2.00;;;;;16.21;50.26;99171.47;5030627;28;9013;-79
2022/09/18 08:58:15;;;;;;;;;2.80;2.60;;;;;16.79;50.11;99155.66;5049200;28;8849;-81
2022/09/18 09:00:50;;;;;;;;;1.80;1.80;;;;;16.45;49.55;99159.34;5048237;28;8830;-81
2022/09/18 09:03:29;;;;;;;;;2.00;2.00;;;;;16.56;48.83;99159.88;5100976;28;9602;-80
2022/09/18 09:06:05;;;;;;;;;1.40;1.00;;;;;16.67;48.56;99156.88;5063718;28;8878;-78
2022/09/18 09:09:02;;;;;;;;;1.00;1.00;;;;;16.20;49.66;99165.34;5109757;28;8931;-80
2022/09/18 09:11:45;;;;;;;;;1.20;1.00;;;;;16.02;48.37;99168.53;4991907;28;8883;-81
2022/09/18 09:14:31;;;;;;;;;2.00;2.00;;;;;16.63;49.32;99155.28;4990521;28;8873;-80
2022/09/18 09:17:37;;;;;;;;;2.00;2.00;;;;;16.75;49.27;99173.31;5025018;28;9052;-79
2022/09/18 09:20:21;;;;;;;;;1.60;1.60;;;;;16.27;47.88;99161.59;4994400;28;8878;-83
2022/09/18 09:23:02;;;;;;;;;12.80;10.60;;;;;16.96;47.99;99153.38;5025036;28;8985;-79
2022/09/18 09:25:38;;;;;;;;;2.00;2.00;;;;;16.74;46.63;99161.91;4974310;28;8892;-80
2022/09/18 09:28:26;;;;;;;;;2.40;2.40;;;;;16.68;46.32;99169.16;4974851;28;8854;-79
2022/09/18 09:31:38;;;;;;;;;1.00;1.00;;;;;17.15;46.23;99153.63;4970952;28;8848;-80
2022/09/18 09:34:23;;;;;;;;;1.40;1.00;;;;;16.93;46.88;99174.53;5008202;28;8857;-79
2022/09/18 09:37:03;;;;;;;;;1.00;1.00;;;;;17.41;44.90;99158.00;4958982;28;9707;-82
2022/09/18 09:39:42;;;;;;;;;1.00;1.00;;;;;17.01;45.19;99171.63;4951473;29;8878;-81
2022/09/18 09:42:15;;;;;;;;;1.00;1.00;;;;;16.79;44.68;99167.06;4951519;29;8873;-81
2022/09/18 09:44:53;;;;;;;;;2.20;2.20;;;;;17.15;45.23;99165.00;4949365;29;8923;-81
2022/09/18 09:47:30;;;;;;;;;1.00;1.00;;;;;17.32;45.20;99160.94;4950585;28;8865;-81
2022/09/18 09:50:13;;;;;;;;;1.00;1.00;;;;;17.69;44.62;99167.53;4985804;28;8978;-80
2022/09/18 09:52:46;;;;;;;;;1.00;1.00;;;;;17.51;44.13;99163.81;4991084;28;8882;-81
2022/09/18 09:55:25;;;;;;;;;2.40;2.40;;;;;17.59;44.96;99174.94;4995211;28;8828;-81
2022/09/18 09:58:06;;;;;;;;;0.00;0.00;;;;;17.74;45.11;99174.38;4991242;28;9011;-79
2022/09/18 10:00:44;;;;;;;;;1.00;1.00;;;;;17.89;42.82;99158.97;5004946;28;8959;-83
2022/09/18 10:03:28;;;;;;;;;1.00;1.00;;;;;18.26;42.34;99162.84;5051561;28;8981;-79
2022/09/18 10:06:09;;;;;;;;;1.60;1.00;;;;;18.51;42.04;99158.34;4977697;28;8981;-80
2022/09/18 10:08:46;;;;;;;;;1.00;1.00;;;;;18.11;41.83;99170.44;5023411;28;8877;-84
2022/09/18 10:11:17;;;;;;;;;0.80;0.80;;;;;17.60;42.48;99171.38;5056420;28;8978;-82
2022/09/18 10:13:58;;;;;;;;;2.00;1.80;;;;;18.46;43.64;99162.09;5095513;28;8877;-81
2022/09/18 10:16:34;;;;;;;;;1.60;1.60;;;;;18.43;42.56;99165.72;5077432;28;8824;-81
2022/09/18 10:19:04;;;;;;;;;1.80;1.80;;;;;18.64;40.78;99163.16;5075893;28;8839;-82
2022/09/18 10:21:37;;;;;;;;;2.60;2.60;;;;;19.14;39.90;99167.31;5073987;28;8874;-81
2022/09/18 10:24:17;;;;;;;;;1.00;1.00;;;;;19.47;39.70;99157.13;5058317;28;8928;-82
2022/09/18 10:26:54;;;;;;;;;1.60;1.60;;;;;18.81;39.36;99157.19;5074452;28;8836;-80
2022/09/18 10:29:23;;;;;;;;;6.60;6.60;;;;;19.26;38.98;99159.75;5056942;28;8867;-82
2022/09/18 10:31:59;;;;;;;;;2.00;2.00;;;;;19.59;39.51;99153.06;5087080;28;8857;-83
2022/09/18 10:34:40;;;;;;;;;1.20;1.20;;;;;18.87;39.43;99175.47;5053735;28;8904;-83
2022/09/18 10:37:15;;;;;;;;;1.00;1.00;;;;;18.70;40.06;99165.53;5072483;28;9031;-80
2022/09/18 10:39:50;;;;;;;;;1.40;1.40;;;;;18.98;39.58;99164.44;5021632;28;8849;-80
2022/09/18 10:42:25;;;;;;;;;1.00;1.00;;;;;19.34;39.10;99156.78;5071168;28;8846;-80
2022/09/18 10:45:05;;;;;;;;;1.00;1.00;;;;;19.51;37.59;99157.81;5035761;28;8859;-83
2022/09/18 10:47:37;;;;;;;;;1.00;0.60;;;;;19.86;36.60;99151.84;5014472;28;8983;-82
2022/09/18 10:50:18;;;;;;;;;1.00;1.00;;;;;19.93;36.72;99146.31;5013871;28;8978;-80
2022/09/18 10:52:52;;;;;;;;;1.00;1.00;;;;;19.62;36.09;99158.19;5014369;28;8831;-83
2022/09/18 10:55:28;;;;;;;;;1.00;1.00;;;;;19.15;36.24;99155.81;5015816;28;8874;-80
2022/09/18 10:58:07;;;;;;;;;43.80;37.60;;;;;20.04;36.47;99146.69;5030159;28;8862;-86
2022/09/18 11:00:39;;;;;;;;;3.40;2.00;;;;;20.03;34.22;99161.69;5046282;28;8866;-80
2022/09/18 11:03:20;;;;;;;;;0.60;0.60;;;;;19.32;34.99;99163.03;5034125;28;8853;-82
2022/09/18 11:05:55;;;;;;;;;1.00;1.00;;;;;19.49;35.91;99163.19;5105881;28;8838;-82
2022/09/18 11:08:29;;;;;;;;;1.00;1.00;;;;;19.73;35.17;99155.97;5017230;28;8859;-81
2022/09/18 11:11:05;;;;;;;;;3.60;3.20;;;;;19.99;34.99;99160.09;5057158;28;8864;-81
2022/09/18 11:13:45;;;;;;;;;0.60;0.60;;;;;19.91;34.70;99145.50;5052838;28;8975;-84
2022/09/18 11:16:23;;;;;;;;;2.80;2.00;;;;;20.14;34.33;99145.31;5062056;28;8885;-82
2022/09/18 11:19:05;;;;;;;;;1.20;1.20;;;;;20.00;34.51;99145.06;5054737;28;8868;-82
2022/09/18 11:21:46;;;;;;;;;0.00;0.00;;;;;19.97;33.57;99142.59;5086023;28;8926;-80
2022/09/18 11:24:22;;;;;;;;;0.00;0.00;;;;;19.91;33.09;99132.28;5052763;28;8922;-80
2022/09/18 11:26:56;;;;;;;;;0.80;0.80;;;;;20.15;33.11;99143.50;5091156;28;8915;-83
2022/09/18 11:29:31;;;;;;;;;5.80;5.80;;;;;20.24;33.27;99132.50;5091965;28;8836;-82
2022/09/18 11:32:10;;;;;;;;;0.60;0.60;;;;;19.90;32.67;99130.56;5090797;28;8844;-81
2022/09/18 11:34:46;;;;;;;;;0.80;0.80;;;;;20.18;33.57;99144.22;5110509;28;9688;-82
2022/09/18 11:37:25;;;;;;;;;6.20;6.20;;;;;20.16;33.44;99130.22;5109144;28;8877;-81
2022/09/18 11:40:02;;;;;;;;;1.40;0.60;;;;;20.61;33.34;99141.38;5094262;28;8904;-83
2022/09/18 11:42:32;;;;;;;;;1.20;1.00;;;;;20.76;35.98;99130.03;5111239;28;8893;-84
2022/09/18 11:45:27;;;;;;;;;1.00;0.80;;;;;20.94;32.01;99127.41;5083056;28;8955;-80
2022/09/18 11:48:04;;;;;;;;;1.80;1.80;;;;;20.98;31.48;99144.88;5112543;28;8877;-82
2022/09/18 11:50:36;;;;;;;;;1.60;1.60;;;;;20.63;31.56;99134.22;5067946;28;9814;-78
2022/09/18 11:53:14;;;;;;;;;1.80;0.00;;;;;20.70;31.75;99130.34;5091117;28;8859;-82
2022/09/18 11:55:48;;;;;;;;;1.60;1.60;;;;;20.74;31.45;99134.56;5046889;28;8863;-82
2022/09/18 11:58:23;;;;;;;;;0.00;0.00;;;;;19.98;32.71;99139.88;5062221;28;8977;-83
2022/09/18 12:01:00;;;;;;;;;0.00;0.00;;;;;20.00;32.99;99134.47;5106434;28;8907;-80
2022/09/18 12:03:39;;;;;;;;;2.00;2.00;;;;;20.35;33.29;99135.50;5072610;28;8843;-79
2022/09/18 12:06:18;;;;;;;;;1.20;1.20;;;;;20.03;33.16;99131.72;5088867;28;8951;-83
2022/09/18 12:08:53;;;;;;;;;1.80;1.00;;;;;19.80;33.38;99136.25;5086406;28;8992;-80
2022/09/18 12:11:32;;;;;;;;;1.00;1.00;;;;;19.77;33.88;99136.41;5105520;28;8965;-80
2022/09/18 12:14:12;;;;;;;;;0.00;0.00;;;;;19.76;33.67;99132.03;5067739;28;8859;-79
2022/09/18 12:16:52;;;;;;;;;1.40;1.40;;;;;19.82;34.05;99134.41;5091125;28;8871;-79
2022/09/18 12:19:31;;;;;;;;;1.00;1.00;;;;;20.05;34.00;99130.69;5089332;28;8870;-82
2022/09/18 12:22:06;;;;;;;;;5.00;5.00;;;;;19.94;33.66;99130.31;5090015;28;8854;-80